Time;durP1;ratioP1;P1;durP2;ratioP2;P2;SDS_P1;SDS_P2;PMS_P1;PMS_P2;Temp;Humidity;BMP_temperature;BMP_pressure;BME280_temperature;BME280_humidity;BME280_pressure;Samples;Min_cycle;Max_cycle;Signal;HPM_P1;HPM_P2
2024/02/27 00:02:13;;;;;;;1.43;0.57;;;5.30;99.90;;;;;;5074125;28;20228;-87
2024/02/27 00:04:41;;;;;;;0.43;0.43;;;5.30;99.90;;;;;;5058300;28;20665;-87
2024/02/27 00:07:08;;;;;;;0.43;0.43;;;5.30;99.90;;;;;;5057480;28;20232;-88
2024/02/27 00:09:33;;;;;;;0.20;0.20;;;5.30;99.90;;;;;;5074023;28;20228;-86
2024/02/27 00:11:59;;;;;;;0.53;0.53;;;5.30;99.90;;;;;;5074433;28;20239;-86
2024/02/27 00:14:25;;;;;;;0.20;0.20;;;5.30;99.90;;;;;;5074098;28;20232;-88
2024/02/27 00:16:51;;;;;;;0.77;0.77;;;5.30;99.90;;;;;;5057424;28;20207;-87
2024/02/27 00:19:17;;;;;;;0.70;0.70;;;5.20;99.90;;;;;;5057945;28;20221;-90
2024/02/27 00:21:42;;;;;;;0.60;0.47;;;5.20;99.90;;;;;;5073901;28;20242;-86
2024/02/27 00:24:08;;;;;;;0.70;0.70;;;5.20;99.90;;;;;;5074607;28;20328;-86
2024/02/27 00:26:34;;;;;;;0.63;0.63;;;5.20;99.90;;;;;;5073892;28;20621;-87
2024/02/27 00:29:00;;;;;;;0.37;0.37;;;5.10;99.90;;;;;;5073912;28;20632;-87
2024/02/27 00:31:25;;;;;;;1.37;0.93;;;5.10;99.90;;;;;;5074791;28;20212;-90
2024/02/27 00:33:51;;;;;;;0.77;0.70;;;5.20;99.90;;;;;;5095053;28;20693;-87
2024/02/27 00:36:18;;;;;;;0.40;0.40;;;5.20;99.90;;;;;;5094893;28;20618;-89
2024/02/27 00:38:44;;;;;;;0.50;0.50;;;5.20;99.90;;;;;;5060804;28;20236;-90
2024/02/27 00:41:10;;;;;;;0.73;0.50;;;5.30;99.90;;;;;;5061200;28;20323;-87
2024/02/27 00:43:35;;;;;;;1.10;0.63;;;5.40;99.90;;;;;;5061597;28;20208;-89
2024/02/27 00:46:01;;;;;;;4.53;0.50;;;5.40;99.90;;;;;;5060913;28;20684;-89
2024/02/27 00:48:27;;;;;;;0.30;0.30;;;5.40;99.90;;;;;;5077372;28;20662;-88
2024/02/27 00:50:53;;;;;;;0.33;0.33;;;5.50;99.90;;;;;;5077310;28;20260;-88
2024/02/27 00:53:21;;;;;;;0.43;0.43;;;5.40;99.90;;;;;;5060745;28;20277;-89
2024/02/27 00:55:47;;;;;;;1.20;1.07;;;5.50;99.90;;;;;;5095935;28;20204;-86
2024/02/27 00:58:12;;;;;;;0.60;0.60;;;5.50;99.90;;;;;;5076833;28;20633;-88
2024/02/27 01:00:38;;;;;;;0.50;0.50;;;5.60;99.90;;;;;;5077673;28;20232;-90
2024/02/27 01:03:04;;;;;;;0.30;0.30;;;5.60;99.90;;;;;;5060689;28;20233;-89
2024/02/27 01:05:30;;;;;;;0.43;0.43;;;5.60;99.90;;;;;;5077176;28;20232;-87
2024/02/27 01:07:55;;;;;;;1.07;1.03;;;5.60;99.90;;;;;;5077087;28;20201;-87
2024/02/27 01:10:21;;;;;;;0.50;0.50;;;5.70;99.90;;;;;;5061093;28;20197;-90
2024/02/27 01:12:47;;;;;;;0.87;0.87;;;5.70;99.90;;;;;;5095033;28;20240;-88
2024/02/27 01:15:13;;;;;;;0.50;0.50;;;5.80;99.90;;;;;;5077094;28;20294;-88
2024/02/27 01:17:38;;;;;;;2.83;0.93;;;5.80;99.90;;;;;;5076987;28;20301;-90
2024/02/27 01:20:05;;;;;;;0.20;0.20;;;5.90;99.90;;;;;;5076673;28;20671;-91
2024/02/27 01:22:35;;;;;;;1.13;0.93;;;5.90;99.90;;;;;;5095648;28;20193;-88
2024/02/27 01:25:01;;;;;;;0.50;0.50;;;5.90;99.90;;;;;;5076432;28;20239;-88
2024/02/27 01:27:29;;;;;;;0.37;0.37;;;6.00;99.90;;;;;;5093702;28;20232;-88
2024/02/27 01:29:56;;;;;;;0.20;0.20;;;6.10;99.90;;;;;;5060637;28;20224;-90
2024/02/27 01:32:22;;;;;;;1.27;1.27;;;6.00;99.90;;;;;;5076705;28;20235;-91
2024/02/27 01:34:47;;;;;;;1.10;0.83;;;6.10;99.90;;;;;;5077912;28;20287;-88
2024/02/27 01:37:13;;;;;;;1.40;1.30;;;6.00;99.90;;;;;;5076679;28;20641;-88
2024/02/27 01:39:39;;;;;;;0.30;0.30;;;6.00;99.90;;;;;;5094283;28;20240;-88
2024/02/27 01:42:05;;;;;;;0.40;0.40;;;6.10;99.90;;;;;;5094780;28;20660;-88
2024/02/27 01:44:31;;;;;;;0.50;0.50;;;6.10;99.90;;;;;;5075514;28;20228;-89
2024/02/27 01:46:58;;;;;;;0.67;0.67;;;6.10;99.90;;;;;;5076150;28;20232;-88
2024/02/27 01:49:26;;;;;;;0.50;0.50;;;6.10;99.90;;;;;;5060339;28;20561;-88
2024/02/27 01:51:53;;;;;;;0.40;0.40;;;6.10;99.90;;;;;;5076404;28;20224;-89
2024/02/27 01:54:20;;;;;;;0.87;0.80;;;6.20;99.90;;;;;;5076050;28;20237;-88
2024/02/27 01:56:48;;;;;;;0.10;0.10;;;6.10;99.90;;;;;;5094329;28;20228;-87
2024/02/27 01:59:18;;;;;;;0.50;0.50;;;6.10;99.90;;;;;;5059789;28;20232;-89
2024/02/27 02:01:44;;;;;;;0.40;0.40;;;6.10;99.90;;;;;;5076649;28;20231;-88
2024/02/27 02:04:12;;;;;;;0.30;0.30;;;6.10;99.90;;;;;;5093418;28;20259;-88
2024/02/27 02:06:38;;;;;;;0.80;0.80;;;6.10;99.90;;;;;;5075778;28;20232;-88
2024/02/27 02:09:04;;;;;;;0.47;0.47;;;6.10;99.90;;;;;;5093915;28;20236;-88
2024/02/27 02:11:30;;;;;;;1.03;0.93;;;6.10;99.90;;;;;;5059312;28;20228;-92
2024/02/27 02:13:56;;;;;;;0.57;0.57;;;6.10;99.90;;;;;;5059205;28;20223;-88
2024/02/27 02:16:22;;;;;;;0.40;0.40;;;6.10;99.90;;;;;;5060011;28;20204;-89
2024/02/27 02:18:48;;;;;;;1.27;1.07;;;6.10;99.90;;;;;;5076373;28;20232;-92
2024/02/27 02:21:14;;;;;;;1.03;0.77;;;6.10;99.90;;;;;;5075605;28;20278;-88
2024/02/27 02:23:41;;;;;;;0.50;0.47;;;6.00;99.90;;;;;;5092516;28;20232;-88
2024/02/27 02:26:08;;;;;;;1.43;1.10;;;5.90;99.90;;;;;;5075974;28;20283;-90
2024/02/27 02:28:33;;;;;;;1.03;1.00;;;5.90;99.90;;;;;;5060151;28;20216;-88
2024/02/27 02:30:59;;;;;;;1.23;1.03;;;5.90;99.90;;;;;;5075904;28;20674;-88
2024/02/27 02:33:28;;;;;;;0.70;0.70;;;5.90;99.90;;;;;;5075911;28;20278;-90
2024/02/27 02:35:54;;;;;;;0.53;0.43;;;5.90;99.90;;;;;;5075445;28;20311;-87
2024/02/27 02:38:20;;;;;;;0.40;0.40;;;5.90;99.90;;;;;;5059299;28;20681;-88
2024/02/27 02:40:45;;;;;;;4.30;0.53;;;5.90;99.90;;;;;;5059817;28;20205;-89
2024/02/27 02:43:11;;;;;;;0.50;0.50;;;6.00;99.90;;;;;;5075483;28;20319;-88
2024/02/27 02:45:37;;;;;;;2.27;1.00;;;6.00;99.90;;;;;;5092939;28;20655;-89
2024/02/27 02:48:06;;;;;;;0.97;0.97;;;6.10;99.90;;;;;;5075355;28;20240;-90
2024/02/27 02:50:32;;;;;;;2.87;0.73;;;6.10;99.90;;;;;;5075793;28;20251;-88
2024/02/27 02:52:58;;;;;;;1.17;1.17;;;6.10;99.90;;;;;;5058652;28;20630;-88
2024/02/27 02:55:25;;;;;;;0.40;0.40;;;6.00;99.90;;;;;;5058956;28;20648;-88
2024/02/27 02:57:51;;;;;;;0.70;0.63;;;5.90;99.90;;;;;;5093395;28;20252;-88
2024/02/27 03:00:17;;;;;;;0.60;0.60;;;5.80;99.90;;;;;;5075174;28;20259;-90
2024/02/27 03:02:43;;;;;;;0.40;0.40;;;5.80;99.90;;;;;;5093023;28;20235;-87
2024/02/27 03:05:12;;;;;;;0.50;0.50;;;5.90;99.90;;;;;;5074826;28;20224;-90
2024/02/27 03:07:41;;;;;;;1.00;0.90;;;5.90;99.90;;;;;;5075528;28;20206;-91
2024/02/27 03:10:08;;;;;;;1.83;1.73;;;6.00;99.90;;;;;;5075533;28;20224;-90
2024/02/27 03:12:38;;;;;;;0.80;0.80;;;6.00;99.90;;;;;;5092843;28;20259;-90
2024/02/27 03:15:07;;;;;;;0.70;0.70;;;6.00;99.90;;;;;;5066615;28;20244;-92
2024/02/27 03:17:33;;;;;;;0.57;0.57;;;6.10;99.90;;;;;;5058296;28;20577;-91
2024/02/27 03:19:58;;;;;;;0.47;0.47;;;6.00;99.90;;;;;;5057921;28;20216;-88
2024/02/27 03:22:24;;;;;;;0.87;0.80;;;6.10;99.90;;;;;;5075410;28;20652;-90
2024/02/27 03:24:50;;;;;;;0.70;0.70;;;6.00;99.90;;;;;;5058069;28;20232;-87
2024/02/27 03:27:16;;;;;;;0.37;0.37;;;6.00;99.90;;;;;;5074732;28;20255;-89
2024/02/27 03:29:42;;;;;;;0.73;0.73;;;6.10;99.90;;;;;;5074602;28;20239;-88
2024/02/27 03:32:07;;;;;;;0.97;0.97;;;6.10;99.90;;;;;;5074630;28;20238;-87
2024/02/27 03:34:34;;;;;;;0.50;0.50;;;6.10;99.90;;;;;;5075091;28;20738;-88
2024/02/27 03:37:00;;;;;;;2.07;0.40;;;6.10;99.90;;;;;;5074284;28;20325;-88
2024/02/27 03:39:26;;;;;;;0.77;0.77;;;6.10;99.90;;;;;;5074875;28;20228;-90
2024/02/27 03:41:52;;;;;;;0.67;0.67;;;6.10;99.90;;;;;;5039771;28;20274;-90
2024/02/27 03:44:17;;;;;;;2.27;0.50;;;6.20;99.90;;;;;;5067023;28;20227;-87
2024/02/27 03:46:43;;;;;;;0.57;0.57;;;6.10;99.90;;;;;;5091751;28;20809;-88
2024/02/27 03:49:09;;;;;;;1.10;0.67;;;6.20;99.90;;;;;;5057695;28;20244;-88
2024/02/27 03:51:35;;;;;;;0.40;0.40;;;6.20;99.90;;;;;;5074665;28;20231;-87
2024/02/27 03:54:01;;;;;;;0.20;0.20;;;6.10;99.90;;;;;;5074517;28;20618;-90
2024/02/27 03:56:27;;;;;;;0.43;0.43;;;6.20;99.90;;;;;;5074364;28;20232;-88
2024/02/27 03:58:52;;;;;;;1.60;0.40;;;6.20;99.90;;;;;;5073951;28;20224;-91
2024/02/27 04:01:18;;;;;;;0.30;0.30;;;6.20;99.90;;;;;;5075008;28;20212;-89
2024/02/27 04:03:44;;;;;;;0.43;0.43;;;6.20;99.90;;;;;;5057366;28;20244;-89
2024/02/27 04:06:13;;;;;;;0.30;0.30;;;6.20;99.90;;;;;;5074662;28;20232;-88
2024/02/27 04:08:39;;;;;;;2.40;0.60;;;6.20;99.90;;;;;;5060797;28;20277;-88
2024/02/27 04:11:05;;;;;;;1.27;1.17;;;6.20;99.90;;;;;;5078221;28;20529;-90
2024/02/27 04:13:31;;;;;;;0.20;0.20;;;6.20;99.90;;;;;;5062093;28;20200;-90
2024/02/27 04:15:58;;;;;;;0.30;0.30;;;6.20;99.90;;;;;;5078564;28;20555;-90
2024/02/27 04:18:23;;;;;;;0.53;0.53;;;6.20;99.90;;;;;;5061831;28;20730;-87
2024/02/27 04:20:49;;;;;;;0.57;0.57;;;6.20;99.90;;;;;;5078321;28;20228;-91
2024/02/27 04:23:15;;;;;;;0.40;0.40;;;6.20;99.90;;;;;;5061399;28;20306;-88
2024/02/27 04:25:41;;;;;;;6.03;1.73;;;6.20;99.90;;;;;;5096894;28;20721;-89
2024/02/27 04:28:07;;;;;;;0.50;0.50;;;6.20;99.90;;;;;;5095993;28;20282;-88
2024/02/27 04:30:32;;;;;;;0.47;0.47;;;6.10;99.90;;;;;;5077784;28;20236;-91
2024/02/27 04:32:58;;;;;;;0.50;0.50;;;6.10;99.90;;;;;;5078335;28;20324;-88
2024/02/27 04:35:24;;;;;;;1.90;1.30;;;6.10;99.90;;;;;;5077855;28;20706;-88
2024/02/27 04:37:50;;;;;;;2.37;1.17;;;6.10;99.90;;;;;;5077423;28;20253;-90
2024/02/27 04:40:16;;;;;;;23.43;3.23;;;6.10;99.90;;;;;;5078256;28;20220;-87
2024/02/27 04:42:42;;;;;;;0.90;0.67;;;6.10;99.90;;;;;;5094790;28;20239;-88
2024/02/27 04:45:08;;;;;;;0.87;0.87;;;6.10;99.90;;;;;;5061057;28;20236;-88
2024/02/27 04:47:34;;;;;;;1.03;1.00;;;6.20;99.90;;;;;;5060912;28;20232;-90
2024/02/27 04:50:02;;;;;;;3.60;1.30;;;6.20;99.90;;;;;;5077664;28;20569;-92
2024/02/27 04:52:28;;;;;;;0.70;0.70;;;6.20;99.90;;;;;;5078190;28;20274;-91
2024/02/27 04:54:54;;;;;;;0.50;0.50;;;6.10;99.90;;;;;;5077150;28;20232;-89
2024/02/27 04:57:22;;;;;;;0.60;0.60;;;6.20;99.90;;;;;;5094005;28;20235;-88
2024/02/27 04:59:48;;;;;;;0.57;0.57;;;6.20;99.90;;;;;;5061027;28;20665;-91
2024/02/27 05:02:18;;;;;;;0.63;0.37;;;6.20;99.90;;;;;;5060367;28;20236;-90
2024/02/27 05:04:44;;;;;;;0.23;0.23;;;6.20;99.90;;;;;;5077957;28;20199;-88
2024/02/27 05:07:10;;;;;;;0.83;0.60;;;6.20;99.90;;;;;;5076892;28;20228;-89
2024/02/27 05:09:36;;;;;;;0.77;0.57;;;6.20;99.90;;;;;;5095195;28;20232;-91
2024/02/27 05:12:04;;;;;;;0.20;0.20;;;6.20;99.90;;;;;;5077065;28;20254;-88
2024/02/27 05:14:30;;;;;;;0.50;0.50;;;6.20;99.90;;;;;;5060577;28;20323;-88
2024/02/27 05:16:55;;;;;;;0.40;0.40;;;6.20;99.90;;;;;;5060917;28;20240;-90
2024/02/27 05:19:21;;;;;;;0.63;0.63;;;6.10;99.90;;;;;;5095306;28;20224;-88
2024/02/27 05:21:47;;;;;;;0.53;0.47;;;6.10;99.90;;;;;;5093552;28;20235;-92
2024/02/27 05:24:12;;;;;;;0.20;0.20;;;6.10;99.90;;;;;;5060105;28;20235;-89
2024/02/27 05:26:38;;;;;;;0.93;0.93;;;6.10;99.90;;;;;;5093497;28;20264;-90
2024/02/27 05:29:04;;;;;;;0.33;0.33;;;6.20;99.90;;;;;;5077259;28;20205;-88
2024/02/27 05:31:31;;;;;;;0.20;0.20;;;6.20;99.90;;;;;;5077854;28;20197;-88
2024/02/27 05:33:58;;;;;;;0.10;0.10;;;6.10;99.90;;;;;;5077428;28;20220;-88
2024/02/27 05:36:25;;;;;;;0.43;0.43;;;6.10;99.90;;;;;;5076670;28;20293;-88
2024/02/27 05:38:53;;;;;;;0.37;0.20;;;6.10;99.90;;;;;;5094577;28;20250;-88
2024/02/27 05:41:20;;;;;;;7.43;1.03;;;6.10;99.90;;;;;;5076609;28;20252;-88
2024/02/27 05:43:46;;;;;;;0.47;0.47;;;6.10;99.90;;;;;;5076854;28;20633;-89
2024/02/27 05:46:12;;;;;;;0.67;0.60;;;6.10;99.90;;;;;;5076371;28;20275;-88
2024/02/27 05:48:39;;;;;;;0.27;0.27;;;6.00;99.90;;;;;;5076655;28;20232;-91
2024/02/27 05:51:06;;;;;;;0.53;0.50;;;5.90;99.90;;;;;;5076410;28;20240;-90
2024/02/27 05:53:33;;;;;;;0.60;0.60;;;5.90;99.90;;;;;;5076723;28;20252;-88
2024/02/27 05:55:59;;;;;;;0.40;0.40;;;5.90;99.90;;;;;;5076373;28;20626;-88
2024/02/27 05:58:24;;;;;;;1.33;1.23;;;5.80;99.90;;;;;;5094014;28;20326;-90
2024/02/27 06:00:51;;;;;;;0.30;0.30;;;5.80;99.90;;;;;;5060033;28;20630;-90
2024/02/27 06:03:26;;;;;;;0.60;0.60;;;5.60;99.90;;;;;;5094061;28;20244;-93
2024/02/27 06:05:52;;;;;;;0.73;0.73;;;5.50;99.90;;;;;;5076393;28;20228;-92
2024/02/27 06:08:18;;;;;;;0.30;0.30;;;5.40;99.90;;;;;;5076508;28;20266;-88
2024/02/27 06:10:45;;;;;;;0.63;0.63;;;5.40;99.90;;;;;;5093628;28;20209;-89
2024/02/27 06:13:11;;;;;;;0.40;0.30;;;5.30;99.90;;;;;;5093043;28;20239;-92
2024/02/27 06:15:37;;;;;;;0.40;0.40;;;5.30;99.90;;;;;;5076168;28;20318;-89
2024/02/27 06:18:05;;;;;;;1.20;0.70;;;5.30;99.90;;;;;;5076339;28;20703;-92
2024/02/27 06:23:27;;;;;;;0.40;0.40;;;5.20;99.90;;;;;;5069418;28;20236;-89
2024/02/27 06:25:55;;;;;;;0.50;0.50;;;5.20;99.90;;;;;;5093631;28;20184;-92
2024/02/27 06:28:22;;;;;;;0.90;0.90;;;5.20;99.90;;;;;;5059255;28;20211;-91
2024/02/27 06:30:48;;;;;;;1.07;0.50;;;5.20;99.90;;;;;;5050007;28;20259;-90
2024/02/27 06:33:13;;;;;;;0.70;0.70;;;5.10;99.90;;;;;;5092579;28;20704;-91
2024/02/27 06:35:40;;;;;;;0.40;0.40;;;5.00;99.90;;;;;;5075558;28;20232;-89
2024/02/27 06:38:06;;;;;;;0.40;0.40;;;5.10;99.90;;;;;;5058515;28;20224;-89
2024/02/27 06:40:31;;;;;;;0.80;0.80;;;5.00;99.90;;;;;;5059248;28;20704;-90
2024/02/27 06:42:57;;;;;;;0.63;0.63;;;5.00;99.90;;;;;;5075347;28;20228;-89
2024/02/27 06:45:23;;;;;;;0.37;0.37;;;5.60;99.90;;;;;;5074846;28;20786;-91
2024/02/27 06:47:49;;;;;;;0.77;0.77;;;6.30;99.90;;;;;;5075131;28;20645;-89
2024/02/27 06:50:16;;;;;;;0.60;0.60;;;7.30;99.90;;;;;;5058399;28;20703;-90
2024/02/27 06:52:44;;;;;;;3.93;1.13;;;8.00;99.90;;;;;;5075814;28;20230;-89
2024/02/27 06:55:10;;;;;;;0.50;0.50;;;8.70;99.90;;;;;;5091383;28;20256;-91
2024/02/27 06:57:36;;;;;;;0.87;0.87;;;9.60;99.90;;;;;;5075171;28;20236;-92
2024/02/27 07:00:04;;;;;;;0.73;0.73;;;10.50;99.90;;;;;;5074701;28;20239;-89
2024/02/27 07:02:31;;;;;;;0.50;0.50;;;11.30;99.90;;;;;;5074820;28;20235;-90
2024/02/27 07:04:57;;;;;;;0.40;0.40;;;12.10;99.90;;;;;;5074161;28;20197;-88
2024/02/27 07:07:22;;;;;;;0.43;0.43;;;12.00;99.90;;;;;;5074975;28;20199;-88
2024/02/27 07:09:48;;;;;;;0.40;0.40;;;12.40;99.90;;;;;;5074148;28;20232;-89
2024/02/27 07:12:14;;;;;;;0.80;0.80;;;12.10;99.90;;;;;;5091474;28;20546;-89
2024/02/27 07:14:41;;;;;;;0.37;0.37;;;11.70;99.90;;;;;;5074269;28;20692;-89
2024/02/27 07:17:07;;;;;;;0.40;0.27;;;11.90;99.90;;;;;;5074281;28;20208;-91
2024/02/27 07:19:33;;;;;;;0.30;0.27;;;12.00;99.90;;;;;;5075162;28;20307;-93
2024/02/27 07:21:58;;;;;;;0.23;0.23;;;11.40;99.90;;;;;;5056998;28;20260;-88
2024/02/27 07:24:24;;;;;;;0.67;0.57;;;10.80;99.90;;;;;;5073666;28;20349;-91
2024/02/27 07:26:50;;;;;;;0.63;0.63;;;10.00;99.90;;;;;;5073984;28;20236;-87
2024/02/27 07:29:16;;;;;;;0.57;0.57;;;9.30;99.90;;;;;;5091832;28;20235;-89
2024/02/27 07:31:44;;;;;;;0.90;0.90;;;9.30;99.90;;;;;;5074657;28;20208;-89
2024/02/27 07:34:16;;;;;;;0.30;0.30;;;9.40;99.90;;;;;;5073823;28;20296;-91
2024/02/27 07:36:43;;;;;;;0.60;0.60;;;9.10;99.90;;;;;;5058956;28;20263;-89
2024/02/27 07:39:11;;;;;;;0.70;0.70;;;8.30;99.90;;;;;;5057859;28;20229;-91
2024/02/27 07:41:38;;;;;;;0.50;0.50;;;7.90;99.90;;;;;;5092701;28;20696;-89
2024/02/27 07:44:07;;;;;;;1.83;0.80;;;7.60;99.90;;;;;;5077564;28;20208;-91
2024/02/27 07:46:35;;;;;;;0.60;0.60;;;7.70;99.90;;;;;;5095941;28;20306;-90
2024/02/27 07:49:03;;;;;;;0.30;0.30;;;8.00;99.90;;;;;;5078423;28;20331;-89
2024/02/27 07:51:34;;;;;;;0.40;0.40;;;8.00;99.90;;;;;;5096536;28;20236;-92
2024/02/27 07:54:00;;;;;;;0.70;0.70;;;7.90;99.90;;;;;;5096142;28;20235;-90
2024/02/27 07:56:30;;;;;;;0.83;0.83;;;8.10;99.90;;;;;;5094884;28;20235;-91
2024/02/27 07:58:56;;;;;;;0.40;0.40;;;8.10;99.90;;;;;;5078481;28;20217;-91
2024/02/27 08:01:24;;;;;;;1.00;0.60;;;8.20;99.90;;;;;;5095733;28;20295;-90
2024/02/27 08:03:52;;;;;;;0.90;0.90;;;8.10;99.90;;;;;;5096320;28;20232;-91
2024/02/27 08:06:18;;;;;;;0.93;0.70;;;8.20;99.90;;;;;;5061757;28;20232;-87
2024/02/27 08:08:44;;;;;;;1.00;0.93;;;8.20;99.90;;;;;;5077484;28;20247;-86
2024/02/27 08:11:10;;;;;;;0.77;0.77;;;8.60;99.90;;;;;;5094329;28;20235;-88
2024/02/27 08:13:35;;;;;;;0.60;0.60;;;8.90;99.90;;;;;;5078152;28;20216;-88
2024/02/27 08:16:01;;;;;;;1.27;1.00;;;9.10;99.90;;;;;;5095187;28;20235;-88
2024/02/27 08:18:27;;;;;;;0.40;0.30;;;9.20;99.90;;;;;;5076887;28;20228;-88
2024/02/27 08:20:53;;;;;;;0.63;0.63;;;9.80;99.90;;;;;;5060333;28;20525;-89
2024/02/27 08:23:19;;;;;;;1.70;1.60;;;9.90;99.90;;;;;;5095347;28;20235;-89
2024/02/27 08:25:45;;;;;;;0.57;0.57;;;9.90;99.90;;;;;;5077287;28;20205;-89
2024/02/27 08:28:14;;;;;;;0.57;0.40;;;10.00;99.90;;;;;;5060473;28;20232;-90
2024/02/27 08:30:39;;;;;;;1.20;0.70;;;9.60;99.90;;;;;;5077188;28;20288;-87
2024/02/27 08:33:05;;;;;;;0.50;0.50;;;9.10;99.90;;;;;;5060411;28;20236;-90
2024/02/27 08:35:31;;;;;;;0.97;0.97;;;9.30;99.90;;;;;;5077325;28;20232;-89
2024/02/27 08:38:00;;;;;;;0.83;0.83;;;10.50;99.90;;;;;;5095070;28;20729;-88
2024/02/27 08:40:35;;;;;;;0.80;0.80;;;10.70;99.90;;;;;;5077564;28;20231;-91
2024/02/27 08:43:01;;;;;;;0.90;0.90;;;10.60;99.90;;;;;;5076982;28;20232;-89
2024/02/27 08:45:27;;;;;;;0.63;0.43;;;10.30;99.90;;;;;;5095252;28;20235;-90
2024/02/27 08:47:55;;;;;;;0.70;0.70;;;10.80;99.90;;;;;;5085122;28;20288;-87
2024/02/27 08:50:21;;;;;;;1.40;0.70;;;10.70;99.90;;;;;;5077154;28;20224;-88
2024/02/27 08:52:47;;;;;;;0.97;0.90;;;10.50;99.90;;;;;;5060723;28;20200;-87
2024/02/27 08:55:12;;;;;;;1.10;1.00;;;11.50;99.90;;;;;;5059279;28;20232;-86
2024/02/27 08:57:38;;;;;;;0.47;0.47;;;12.10;99.90;;;;;;5059291;28;20323;-87
2024/02/27 09:00:06;;;;;;;1.13;1.00;;;11.20;99.90;;;;;;5076188;28;20723;-85
2024/02/27 09:02:37;;;;;;;0.83;0.83;;;10.40;99.90;;;;;;5059701;28;20268;-87
2024/02/27 09:05:03;;;;;;;0.30;0.30;;;9.30;99.90;;;;;;5057125;28;20233;-90
2024/02/27 09:07:29;;;;;;;0.80;0.50;;;8.80;5.50;;;;;;5060007;28;20209;-86
2024/02/27 09:09:55;;;;;;;0.57;0.50;;;8.70;1.00;;;;;;5059725;28;20308;-89
2024/02/27 09:12:23;;;;;;;0.67;0.67;;;8.70;1.00;;;;;;5058679;28;20224;-86
2024/02/27 09:14:49;;;;;;;0.40;0.40;;;8.70;1.00;;;;;;5076409;28;20224;-88
2024/02/27 09:17:15;;;;;;;0.67;0.50;;;8.90;1.00;;;;;;5076349;28;20349;-86
2024/02/27 09:19:41;;;;;;;19.73;0.97;;;8.80;1.00;;;;;;5075318;28;20236;-88
2024/02/27 09:22:06;;;;;;;0.40;0.40;;;8.60;99.90;;;;;;5058793;28;20281;-86
2024/02/27 09:24:32;;;;;;;0.63;0.63;;;8.40;51.50;;;;;;5058809;28;20238;-87
2024/02/27 09:26:58;;;;;;;1.13;0.87;;;8.70;56.20;;;;;;5076049;28;20225;-87
2024/02/27 09:29:24;;;;;;;1.90;0.77;;;9.00;99.90;;;;;;5058974;28;20314;-87
2024/02/27 09:31:50;;;;;;;0.47;0.47;;;9.00;4.20;;;;;;5059685;28;20201;-87
2024/02/27 09:34:16;;;;;;;0.40;0.40;;;9.10;1.00;;;;;;5058945;28;20259;-86
2024/02/27 09:36:41;;;;;;;0.40;0.40;;;9.30;1.00;;;;;;5058751;28;20585;-85
2024/02/27 09:39:07;;;;;;;0.27;0.27;;;9.50;1.00;;;;;;5075734;28;20225;-88
2024/02/27 09:41:55;;;;;;;0.43;0.43;;;9.70;1.00;;;;;;5058777;28;20269;-85
2024/02/27 09:44:21;;;;;;;0.60;0.60;;;9.90;1.00;;;;;;5093093;28;20706;-87
2024/02/27 09:46:49;;;;;;;0.33;0.33;;;9.90;1.00;;;;;;5076364;28;20237;-85
2024/02/27 09:49:17;;;;;;;0.30;0.30;;;9.70;99.90;;;;;;5093572;28;20229;-87
2024/02/27 09:51:45;;;;;;;0.30;0.30;;;9.70;99.90;;;;;;5092091;28;20373;-86
2024/02/27 09:54:12;;;;;;;0.70;0.60;;;9.60;1.00;;;;;;5075870;28;20228;-86
2024/02/27 09:56:37;;;;;;;1.50;0.97;;;9.40;99.90;;;;;;5075135;28;20217;-86
2024/02/27 09:59:03;;;;;;;0.70;0.70;;;9.60;99.90;;;;;;5059380;28;20221;-85
2024/02/27 10:01:33;;;;;;;0.50;0.50;;;9.70;99.90;;;;;;5058647;28;20733;-86
2024/02/27 10:03:59;;;;;;;7.93;0.50;;;9.60;1.00;;;;;;5093139;28;20307;-88
2024/02/27 10:06:31;;;;;;;0.40;0.40;;;9.80;1.00;;;;;;5092752;28;20240;-86
2024/02/27 10:09:00;;;;;;;0.43;0.43;;;9.80;1.00;;;;;;5092646;28;20303;-85
2024/02/27 10:11:26;;;;;;;2.80;0.30;;;10.00;1.00;;;;;;5074645;28;20287;-85
2024/02/27 10:13:52;;;;;;;0.20;0.20;;;9.60;99.90;;;;;;5058999;28;20235;-88
2024/02/27 10:16:21;;;;;;;0.13;0.13;;;9.80;99.90;;;;;;5075158;28;20279;-84
2024/02/27 10:18:50;;;;;;;1.23;0.43;;;9.90;74.40;;;;;;5074575;28;20672;-86
2024/02/27 10:21:19;;;;;;;0.60;0.47;;;10.10;55.90;;;;;;5058181;28;20259;-88
2024/02/27 10:23:46;;;;;;;0.30;0.30;;;10.40;99.90;;;;;;5074978;28;20244;-89
2024/02/27 10:26:12;;;;;;;0.70;0.70;;;10.00;1.00;;;;;;5075512;28;20266;-88
2024/02/27 10:28:39;;;;;;;2.10;0.53;;;9.70;80.90;;;;;;5074532;28;20240;-86
2024/02/27 10:31:08;;;;;;;0.63;0.63;;;9.20;1.00;;;;;;5057571;28;20252;-88
2024/02/27 10:33:36;;;;;;;0.60;0.60;;;9.20;99.90;;;;;;5092930;28;20259;-88
2024/02/27 10:36:03;;;;;;;3.40;0.63;;;9.20;99.90;;;;;;5074258;28;20235;-86
2024/02/27 10:38:29;;;;;;;0.97;0.97;;;9.30;99.90;;;;;;5057859;28;20660;-87
2024/02/27 10:40:55;;;;;;;0.63;0.40;;;9.10;99.90;;;;;;5058460;28;20308;-86
2024/02/27 10:43:21;;;;;;;1.17;0.93;;;9.00;99.90;;;;;;5092169;28;20737;-88
2024/02/27 10:45:50;;;;;;;0.50;0.50;;;9.10;99.90;;;;;;5074644;28;20236;-87
2024/02/27 10:48:19;;;;;;;0.70;0.70;;;9.50;99.90;;;;;;5057504;28;20660;-86
2024/02/27 10:50:46;;;;;;;0.73;0.73;;;10.00;1.00;;;;;;5074526;28;20247;-87
2024/02/27 10:53:13;;;;;;;0.80;0.70;;;10.70;1.00;;;;;;5074606;28;20329;-86
2024/02/27 10:55:39;;;;;;;0.73;0.50;;;11.00;1.00;;;;;;5074296;28;20296;-87
2024/02/27 10:58:06;;;;;;;2.07;1.87;;;11.40;1.00;;;;;;5073937;28;20260;-87
2024/02/27 11:00:33;;;;;;;1.03;0.63;;;11.30;1.00;;;;;;5073880;28;20286;-86
2024/02/27 11:03:01;;;;;;;0.57;0.57;;;11.10;99.90;;;;;;5073952;28;20227;-87
2024/02/27 11:05:32;;;;;;;1.60;0.67;;;10.90;99.90;;;;;;5091543;28;20207;-87
2024/02/27 11:07:59;;;;;;;0.50;0.50;;;10.70;1.00;;;;;;5092250;28;20240;-86
2024/02/27 11:10:29;;;;;;;1.30;1.20;;;10.90;1.00;;;;;;5057321;28;20297;-89
2024/02/27 11:12:55;;;;;;;0.70;0.70;;;11.00;1.00;;;;;;5057561;28;20240;-87
2024/02/27 11:15:22;;;;;;;0.77;0.77;;;11.20;1.00;;;;;;5091401;28;20255;-86
2024/02/27 11:17:59;;;;;;;1.30;1.20;;;11.10;99.90;;;;;;5057288;28;20271;-88
2024/02/27 11:20:27;;;;;;;0.47;0.47;;;9.80;1.00;;;;;;5091354;28;20220;-87
2024/02/27 11:22:54;;;;;;;0.43;0.40;;;9.20;99.90;;;;;;5074062;28;20748;-87
2024/02/27 11:25:20;;;;;;;0.83;0.57;;;9.80;99.90;;;;;;5073296;28;20238;-88
2024/02/27 11:27:48;;;;;;;0.83;0.83;;;10.40;1.00;;;;;;5073517;28;20274;-90
2024/02/27 11:30:16;;;;;;;1.27;1.17;;;11.10;1.00;;;;;;5073252;28;20775;-88
2024/02/27 11:32:42;;;;;;;0.60;0.60;;;11.50;1.00;;;;;;5057048;28;20625;-89
2024/02/27 11:35:10;;;;;;;1.23;0.90;;;11.80;99.90;;;;;;5074220;28;20284;-87
2024/02/27 11:37:35;;;;;;;0.83;0.83;;;12.30;99.90;;;;;;5073086;28;20241;-88
2024/02/27 11:40:06;;;;;;;1.20;1.10;;;12.80;99.90;;;;;;5055944;28;20232;-87
2024/02/27 11:42:39;;;;;;;10.67;1.47;;;12.50;99.90;;;;;;5073280;28;20228;-89
2024/02/27 11:45:11;;;;;;;2.90;1.80;;;12.00;1.00;;;;;;5091035;28;20244;-88
2024/02/27 11:47:53;;;;;;;0.80;0.80;;;12.00;1.00;;;;;;5072637;28;20236;-90
2024/02/27 11:50:51;;;;;;;3.47;2.20;;;12.20;99.90;;;;;;5073471;28;20269;-87
2024/02/27 11:53:17;;;;;;;1.03;0.90;;;12.90;1.00;;;;;;5050625;28;20235;-89
2024/02/27 11:55:47;;;;;;;1.20;1.10;;;13.00;1.00;;;;;;5092022;28;20670;-90
2024/02/27 11:58:14;;;;;;;1.47;1.17;;;13.90;1.00;;;;;;5091478;28;20224;-93
2024/02/27 12:00:39;;;;;;;1.90;1.80;;;14.70;94.40;;;;;;5090737;28;20236;-87
2024/02/27 12:03:09;;;;;;;1.00;1.00;;;13.00;99.90;;;;;;5073144;28;20228;-92
2024/02/27 12:05:36;;;;;;;1.83;1.57;;;12.20;1.00;;;;;;5057149;28;20358;-86
2024/02/27 12:08:02;;;;;;;3.77;1.60;;;12.30;99.90;;;;;;5073690;28;20652;-87
2024/02/27 12:10:28;;;;;;;1.70;1.60;;;11.30;1.00;;;;;;5056616;28;20224;-88
2024/02/27 12:12:54;;;;;;;1.67;1.10;;;11.30;1.00;;;;;;5073096;28;20632;-87
2024/02/27 12:15:20;;;;;;;1.27;1.17;;;12.10;1.00;;;;;;5072938;28;20226;-87
2024/02/27 12:17:46;;;;;;;2.83;1.17;;;13.50;99.90;;;;;;5056714;28;20311;-89
2024/02/27 12:20:13;;;;;;;1.80;1.20;;;14.70;1.00;;;;;;5056997;28;20316;-88
2024/02/27 12:22:45;;;;;;;1.30;1.20;;;15.70;99.90;;;;;;5057369;28;20228;-87
2024/02/27 12:25:12;;;;;;;1.47;1.20;;;16.20;99.90;;;;;;5073757;28;20254;-89
2024/02/27 12:27:38;;;;;;;1.57;1.33;;;16.60;99.90;;;;;;5073851;28;20235;-88
2024/02/27 12:30:10;;;;;;;1.20;1.10;;;16.40;99.90;;;;;;5076493;28;20657;-90
2024/02/27 12:32:50;;;;;;;1.47;0.93;;;15.80;1.00;;;;;;5061884;28;20214;-88
2024/02/27 12:35:17;;;;;;;1.67;1.10;;;14.80;99.90;;;;;;5063824;28;20674;-90
2024/02/27 12:37:44;;;;;;;1.67;1.50;;;14.20;1.00;;;;;;5060119;28;20224;-88
2024/02/27 12:40:15;;;;;;;3.70;1.47;;;13.90;1.00;;;;;;5076469;28;20244;-88
2024/02/27 12:42:43;;;;;;;0.97;0.57;;;13.50;99.90;;;;;;5094096;28;20688;-92
2024/02/27 12:45:10;;;;;;;1.53;1.07;;;12.40;1.00;;;;;;5077169;28;20229;-91
2024/02/27 12:47:40;;;;;;;1.20;1.10;;;12.20;1.00;;;;;;5076643;28;20258;-90
2024/02/27 12:50:16;;;;;;;1.10;1.10;;;11.80;99.90;;;;;;5077992;28;20183;-88
2024/02/27 12:52:42;;;;;;;1.90;1.50;;;11.50;99.90;;;;;;5060185;28;20236;-88
2024/02/27 12:55:09;;;;;;;1.00;0.80;;;10.80;1.00;;;;;;5095191;28;20327;-88
2024/02/27 12:57:35;;;;;;;0.53;0.50;;;10.30;1.00;;;;;;5077187;28;20650;-88